Time;durP1;ratioP1;P1;durP2;ratioP2;P2;SDS_P1;SDS_P2;PMS_P1;PMS_P2;Temp;Humidity;BMP_temperature;BMP_pressure;BME280_temperature;BME280_humidity;BME280_pressure;Samples;Min_cycle;Max_cycle;Signal;HPM_P1;HPM_P2
2024/03/03 00:00:23;;;;;;;40.1;25.1;;;;;;;7.24;88.12;98103.333333333;;;;
2024/03/03 00:11:18;;;;;;;36.5;23.2;;;;;;;7.27;88.94;98100;;;;
2024/03/03 00:21:19;;;;;;;36.5;23.2;;;;;;;7.41;88.71;98093.333333333;;;;
2024/03/03 00:32:19;;;;;;;36.5;23.2;;;;;;;7.58;89;98088.333333333;;;;
2024/03/03 00:42:18;;;;;;;45;27.5;;;;;;;7.73;88.62;98080;;;;
2024/03/03 00:53:20;;;;;;;45;27.5;;;;;;;7.82;88.34;98083.333333333;;;;
2024/03/03 01:03:19;;;;;;;40.9;25.7;;;;;;;7.84;88.34;98085;;;;
2024/03/03 01:13:19;;;;;;;40.9;25.7;;;;;;;7.61;87.21;98095;;;;
2024/03/03 01:24:18;;;;;;;40.9;25.7;;;;;;;7.49;88.17;98081.666666667;;;;
2024/03/03 01:35:18;;;;;;;38.7;26.3;;;;;;;7.19;88.71;98076.666666667;;;;
2024/03/03 01:46:18;;;;;;;38.7;26.3;;;;;;;7.35;89.25;98073.333333333;;;;
2024/03/03 01:56:18;;;;;;;38.7;26.3;;;;;;;7.4;88.3;98056.666666667;;;;
2024/03/03 02:07:18;;;;;;;41;26.9;;;;;;;7.35;87.81;98063.333333333;;;;
2024/03/03 02:18:18;;;;;;;41;26.9;;;;;;;7.16;87.84;98058.333333333;;;;
2024/03/03 02:29:18;;;;;;;41;26.9;;;;;;;7.07;88.32;98046.666666667;;;;
2024/03/03 02:40:18;;;;;;;40.1;24.8;;;;;;;7.16;87.89;98051.666666667;;;;
2024/03/03 02:50:19;;;;;;;40.1;24.8;;;;;;;6.84;87.94;98050;;;;
2024/03/03 03:01:18;;;;;;;40.1;24.8;;;;;;;6.54;87.88;98051.666666667;;;;
2024/03/03 03:12:18;;;;;;;40.7;26.6;;;;;;;6.15;88.85;98051.666666667;;;;
2024/03/03 03:23:20;;;;;;;40.7;26.6;;;;;;;5.96;88.67;98036.666666667;;;;
2024/03/03 03:33:19;;;;;;;36.7;24.8;;;;;;;5.83;88.85;98038.333333333;;;;
2024/03/03 03:44:19;;;;;;;36.7;24.8;;;;;;;5.65;89.06;98056.666666667;;;;
2024/03/03 03:55:18;;;;;;;36.7;24.8;;;;;;;5.54;89.48;98043.333333333;;;;
2024/03/03 04:06:18;;;;;;;34.8;22.2;;;;;;;5.51;89.88;98056.666666667;;;;
2024/03/03 04:17:18;;;;;;;34.8;22.2;;;;;;;5.37;89.77;98055;;;;
2024/03/03 04:28:18;;;;;;;34.8;22.2;;;;;;;5.35;89.63;98050;;;;
2024/03/03 04:38:18;;;;;;;32.1;19.4;;;;;;;5.38;89.67;98043.333333333;;;;
2024/03/03 04:49:18;;;;;;;32.1;19.4;;;;;;;5.28;89.88;98046.666666667;;;;
2024/03/03 04:59:18;;;;;;;32.1;19.4;;;;;;;5.18;89.82;98058.333333333;;;;
2024/03/03 05:09:18;;;;;;;29;17.7;;;;;;;5.14;89.58;98051.666666667;;;;
2024/03/03 05:19:20;;;;;;;29;17.7;;;;;;;4.99;89.35;98051.666666667;;;;
2024/03/03 05:30:18;;;;;;;29;17.7;;;;;;;4.9;89.61;98043.333333333;;;;
2024/03/03 05:40:20;;;;;;;34.4;19.1;;;;;;;4.79;90.92;98038.333333333;;;;
2024/03/03 05:51:18;;;;;;;34.4;19.1;;;;;;;5;91.01;98036.666666667;;;;
2024/03/03 06:02:18;;;;;;;34.4;19.1;;;;;;;5.03;90.88;98041.666666667;;;;
2024/03/03 06:12:18;;;;;;;34.3;19.6;;;;;;;5.07;90.98;98045;;;;
2024/03/03 06:23:18;;;;;;;34.3;19.6;;;;;;;5.28;90.61;98051.666666667;;;;
2024/03/03 06:33:18;;;;;;;31.2;18.7;;;;;;;5.54;92.25;98051.666666667;;;;
2024/03/03 06:43:20;;;;;;;31.2;18.7;;;;;;;6.07;92.57;98051.666666667;;;;
2024/03/03 06:53:19;;;;;;;31.2;18.7;;;;;;;6.38;91.44;98048.333333333;;;;
2024/03/03 07:04:20;;;;;;;37.1;23.7;;;;;;;7;91.84;98046.666666667;;;;
2024/03/03 07:15:18;;;;;;;37.1;23.7;;;;;;;7.63;90.14;98045;;;;
2024/03/03 07:26:18;;;;;;;37.1;23.7;;;;;;;8.34;89.83;98046.666666667;;;;
2024/03/03 07:36:18;;;;;;;36;23.4;;;;;;;8.61;87.75;98051.666666667;;;;
2024/03/03 07:46:18;;;;;;;36;23.4;;;;;;;9.14;87.41;98051.666666667;;;;
2024/03/03 07:56:19;;;;;;;36;23.4;;;;;;;9.59;84.49;98063.333333333;;;;
2024/03/03 08:06:19;;;;;;;32;21.6;;;;;;;10.13;83.41;98060;;;;
2024/03/03 08:17:19;;;;;;;32;21.6;;;;;;;10.81;79.61;98048.333333333;;;;
2024/03/03 08:27:19;;;;;;;32;21.6;;;;;;;11.37;75.9;98051.666666667;;;;
2024/03/03 08:38:19;;;;;;;13.8;9;;;;;;;11.51;73.21;98048.333333333;;;;
2024/03/03 08:48:20;;;;;;;13.8;9;;;;;;;11.78;73.17;98040;;;;
2024/03/03 08:58:20;;;;;;;13.8;9;;;;;;;12.16;71.12;98038.333333333;;;;
2024/03/03 09:09:19;;;;;;;11.7;9.1;;;;;;;12.44;69.44;98028.333333333;;;;
2024/03/03 09:20:19;;;;;;;11.7;9.1;;;;;;;12.85;65.79;98023.333333333;;;;
2024/03/03 09:30:19;;;;;;;11.7;9.1;;;;;;;13.4;67.27;98023.333333333;;;;
2024/03/03 09:40:19;;;;;;;8.6;5.9;;;;;;;13.62;63.63;98015;;;;
2024/03/03 09:51:19;;;;;;;8.6;5.9;;;;;;;14.22;60.71;98015;;;;
2024/03/03 10:02:19;;;;;;;9.2;5.7;;;;;;;14.5;59.34;98011.666666667;;;;
2024/03/03 10:12:19;;;;;;;9.2;5.7;;;;;;;14.52;57.63;98005;;;;
2024/03/03 10:23:19;;;;;;;9.2;5.7;;;;;;;14.54;57.07;97995;;;;
2024/03/03 10:33:19;;;;;;;6.6;4.3;;;;;;;14.76;56.65;97986.666666667;;;;
2024/03/03 10:43:20;;;;;;;6.6;4.3;;;;;;;15.01;56.78;97981.666666667;;;;
2024/03/03 10:54:19;;;;;;;6.6;4.3;;;;;;;15.5;57.74;97960;;;;
2024/03/03 11:04:19;;;;;;;6.5;4.2;;;;;;;15.5;53.02;97943.333333333;;;;
2024/03/03 11:14:19;;;;;;;6.5;4.2;;;;;;;15.76;53.69;97935;;;;
2024/03/03 11:24:19;;;;;;;6.5;4.2;;;;;;;15.95;54.48;97928.333333333;;;;
2024/03/03 11:34:19;;;;;;;6.7;4.3;;;;;;;15.85;52.49;97918.333333333;;;;
2024/03/03 11:44:19;;;;;;;6.7;4.3;;;;;;;16.15;54.01;97906.666666667;;;;
2024/03/03 11:55:19;;;;;;;6.7;4.3;;;;;;;16.19;52.68;97900;;;;
2024/03/03 12:06:19;;;;;;;8.1;4.4;;;;;;;16.58;50.67;97886.666666667;;;;
2024/03/03 12:16:19;;;;;;;8.1;4.4;;;;;;;16.23;52.53;97878.333333333;;;;
2024/03/03 12:26:19;;;;;;;8.1;4.4;;;;;;;16.52;53.05;97895;;;;
2024/03/03 12:36:19;;;;;;;6.8;4.5;;;;;;;17.15;51.21;97885;;;;
2024/03/03 12:47:19;;;;;;;6.8;4.5;;;;;;;16.97;53.78;97875;;;;
2024/03/03 12:58:19;;;;;;;6.8;4.5;;;;;;;16.79;54.25;97860;;;;
2024/03/03 13:09:19;;;;;;;7.5;5.4;;;;;;;16.49;52.38;97821.666666667;;;;
2024/03/03 13:20:19;;;;;;;7.5;5.4;;;;;;;16.72;50.16;97811.666666667;;;;
2024/03/03 13:31:19;;;;;;;7.5;5.4;;;;;;;16.68;52.21;97806.666666667;;;;
2024/03/03 13:41:19;;;;;;;7.6;4.8;;;;;;;16.58;51.15;97798.333333333;;;;
2024/03/03 13:52:19;;;;;;;7.6;4.8;;;;;;;15.7;52.77;97800;;;;
2024/03/03 14:02:19;;;;;;;7.9;4.8;;;;;;;15.43;53.85;97793.333333333;;;;
2024/03/03 14:12:20;;;;;;;7.9;4.8;;;;;;;15.23;55.55;97788.333333333;;;;
2024/03/03 14:23:19;;;;;;;7.9;4.8;;;;;;;15.02;56.71;97788.333333333;;;;
2024/03/03 14:33:19;;;;;;;10.2;5.7;;;;;;;15.28;56.14;97790;;;;
2024/03/03 14:44:19;;;;;;;10.2;5.7;;;;;;;15.18;55.81;97781.666666667;;;;
2024/03/03 14:54:19;;;;;;;10.2;5.7;;;;;;;15.16;56.3;97778.333333333;;;;
2024/03/03 15:04:20;;;;;;;12.3;5.1;;;;;;;14.87;56.69;97778.333333333;;;;
2024/03/03 15:15:21;;;;;;;12.3;5.1;;;;;;;14.57;58.03;97773.333333333;;;;
2024/03/03 15:25:19;;;;;;;12.3;5.1;;;;;;;14.37;58.05;97771.666666667;;;;
2024/03/03 15:36:20;;;;;;;7.9;4.6;;;;;;;14.2;59.16;97768.333333333;;;;
2024/03/03 15:46:19;;;;;;;7.9;4.6;;;;;;;14.11;58.97;97770;;;;
2024/03/03 15:56:19;;;;;;;7.9;4.6;;;;;;;13.82;58.89;97765;;;;
2024/03/03 16:06:19;;;;;;;8.6;6.5;;;;;;;13.73;59.03;97766.666666667;;;;
2024/03/03 16:16:25;;;;;;;8.6;6.5;;;;;;;13.5;60.15;97763.333333333;;;;
2024/03/03 16:27:19;;;;;;;8.6;6.5;;;;;;;13.28;61.97;97768.333333333;;;;
2024/03/03 16:37:19;;;;;;;11.2;9;;;;;;;13.06;63.08;97771.666666667;;;;
2024/03/03 16:48:19;;;;;;;11.2;9;;;;;;;12.79;64.6;97775;;;;
2024/03/03 16:58:19;;;;;;;11.2;9;;;;;;;12.52;65.92;97780;;;;
2024/03/03 17:09:19;;;;;;;13.9;9.1;;;;;;;12.38;67.31;97791.666666667;;;;
2024/03/03 17:20:19;;;;;;;13.9;9.1;;;;;;;12.32;67.57;97800;;;;
2024/03/03 17:30:19;;;;;;;13.9;9.1;;;;;;;12.22;68.22;97800;;;;
2024/03/03 17:40:19;;;;;;;13.3;8.1;;;;;;;12.14;68.64;97808.333333333;;;;
2024/03/03 17:51:19;;;;;;;13.3;8.1;;;;;;;12.04;69.19;97810;;;;
2024/03/03 18:02:19;;;;;;;20.3;14.6;;;;;;;11.96;69.29;97811.666666667;;;;
2024/03/03 18:13:20;;;;;;;20.3;14.6;;;;;;;11.85;70.54;97818.333333333;;;;
2024/03/03 18:24:21;;;;;;;20.3;14.6;;;;;;;11.68;72.15;97833.333333333;;;;
2024/03/03 18:35:20;;;;;;;20.1;11.7;;;;;;;11.72;72.45;97833.333333333;;;;
2024/03/03 18:45:19;;;;;;;20.1;11.7;;;;;;;11.61;72.4;97845;;;;
2024/03/03 18:55:19;;;;;;;20.1;11.7;;;;;;;11.45;73.08;97846.666666667;;;;
2024/03/03 19:06:19;;;;;;;48.3;29.7;;;;;;;11.27;73.52;97845;;;;
2024/03/03 19:16:19;;;;;;;48.3;29.7;;;;;;;10.89;76.3;97850;;;;
2024/03/03 19:27:19;;;;;;;48.3;29.7;;;;;;;10.64;77.52;97858.333333333;;;;
2024/03/03 19:38:22;;;;;;;19.1;13.2;;;;;;;10.49;78.63;97853.333333333;;;;
2024/03/03 19:49:19;;;;;;;19.1;13.2;;;;;;;10.24;80.15;97848.333333333;;;;
2024/03/03 19:59:19;;;;;;;19.1;13.2;;;;;;;10.26;79.14;97853.333333333;;;;
2024/03/03 20:10:21;;;;;;;21.3;13.7;;;;;;;9.96;81.02;97846.666666667;;;;
2024/03/03 20:20:19;;;;;;;21.3;13.7;;;;;;;9.95;81.05;97851.666666667;;;;
2024/03/03 20:31:20;;;;;;;21.3;13.7;;;;;;;9.95;80.94;97850;;;;
2024/03/03 20:42:19;;;;;;;22.7;13;;;;;;;9.92;81.02;97853.333333333;;;;
2024/03/03 20:52:19;;;;;;;22.7;13;;;;;;;9.86;81.28;97850;;;;
2024/03/03 21:03:19;;;;;;;30.1;19.9;;;;;;;9.89;81.08;97845;;;;
2024/03/03 21:14:19;;;;;;;30.1;19.9;;;;;;;9.91;80.87;97841.666666667;;;;
2024/03/03 21:25:19;;;;;;;30.1;19.9;;;;;;;9.81;81.32;97846.666666667;;;;
2024/03/03 21:35:19;;;;;;;27.4;15.9;;;;;;;9.8;80.89;97848.333333333;;;;
2024/03/03 21:46:20;;;;;;;27.4;15.9;;;;;;;9.64;81.62;97840;;;;
2024/03/03 21:57:19;;;;;;;27.4;15.9;;;;;;;9.5;82.46;97851.666666667;;;;
2024/03/03 22:07:19;;;;;;;25.3;15.8;;;;;;;9.57;81.78;97848.333333333;;;;
2024/03/03 22:18:19;;;;;;;25.3;15.8;;;;;;;9.51;81.83;97850;;;;
2024/03/03 22:29:19;;;;;;;25.3;15.8;;;;;;;9.47;81.78;97841.666666667;;;;
2024/03/03 22:39:19;;;;;;;25.8;16.7;;;;;;;9.26;83.13;97841.666666667;;;;
2024/03/03 22:50:19;;;;;;;25.8;16.7;;;;;;;9.34;82.43;97833.333333333;;;;
2024/03/03 23:01:19;;;;;;;25.8;16.7;;;;;;;9.04;83.51;97840;;;;
2024/03/03 23:12:19;;;;;;;26.6;17.5;;;;;;;8.88;84.22;97841.666666667;;;;
2024/03/03 23:23:19;;;;;;;26.6;17.5;;;;;;;8.78;84.19;97838.333333333;;;;
2024/03/03 23:33:19;;;;;;;27.7;17.7;;;;;;;8.57;83.94;97833.333333333;;;;
2024/03/03 23:44:19;;;;;;;27.7;17.7;;;;;;;8.31;84.45;97831.666666667;;;;
2024/03/03 23:55:19;;;;;;;27.7;17.7;;;;;;;7.99;84.84;97828.333333333;;;;
